createdAt,value
2022-12-23T00:01:07.784Z,7.39
2022-12-23T00:03:39.618Z,7.36
2022-12-23T00:06:21.730Z,7.33
2022-12-23T00:08:48.587Z,7.34
2022-12-23T00:11:22.556Z,7.34
2022-12-23T00:14:07.903Z,7.23
2022-12-23T00:16:38.618Z,7.40
2022-12-23T00:19:07.931Z,7.39
2022-12-23T00:21:35.962Z,7.40
2022-12-23T00:24:02.910Z,7.32
2022-12-23T00:26:29.614Z,7.33
2022-12-23T00:28:57.718Z,7.22
2022-12-23T00:31:24.874Z,7.23
2022-12-23T00:33:54.927Z,7.34
2022-12-23T00:36:27.707Z,7.28
2022-12-23T00:39:17.280Z,7.36
2022-12-23T00:42:05.238Z,7.34
2022-12-23T00:44:32.135Z,7.34
2022-12-23T00:46:59.006Z,7.38
2022-12-23T00:49:44.045Z,7.40
2022-12-23T00:52:22.331Z,7.37
2022-12-23T00:54:48.951Z,7.40
2022-12-23T00:57:21.336Z,7.36
2022-12-23T00:59:56.161Z,7.29
2022-12-23T01:02:43.870Z,7.38
2022-12-23T01:05:39.422Z,7.36
2022-12-23T01:08:14.774Z,7.42
2022-12-23T01:10:47.586Z,7.38
2022-12-23T01:13:17.509Z,7.38
2022-12-23T01:16:04.655Z,7.44
2022-12-23T01:18:34.818Z,7.45
2022-12-23T01:21:06.952Z,7.45
2022-12-23T01:23:37.491Z,7.43
2022-12-23T01:26:07.353Z,7.45
2022-12-23T01:28:36.369Z,7.37
2022-12-23T01:31:03.891Z,7.43
2022-12-23T01:33:31.945Z,7.39
2022-12-23T01:36:07.241Z,7.43
2022-12-23T01:38:35.375Z,7.37
2022-12-23T01:41:05.205Z,7.48
2022-12-23T01:43:56.763Z,7.45
2022-12-23T01:46:26.971Z,7.39
2022-12-23T01:48:54.335Z,7.44
2022-12-23T01:51:38.097Z,7.48
2022-12-23T01:54:06.165Z,7.46
2022-12-23T01:56:44.059Z,7.47
2022-12-23T01:59:36.202Z,7.52
2022-12-23T02:02:21.642Z,7.51
2022-12-23T02:04:50.442Z,7.46
2022-12-23T02:07:38.130Z,7.52
2022-12-23T02:10:14.853Z,7.52
2022-12-23T02:12:55.713Z,7.54
2022-12-23T02:16:00.211Z,7.50
2022-12-23T02:18:53.773Z,7.57
2022-12-23T02:21:39.064Z,7.57
2022-12-23T02:24:35.904Z,7.57
2022-12-23T02:27:55.205Z,7.59
2022-12-23T02:30:36.444Z,7.55
2022-12-23T02:33:14.140Z,7.54
2022-12-23T02:35:46.881Z,7.55
2022-12-23T02:38:43.572Z,7.51
2022-12-23T02:41:16.314Z,7.53
2022-12-23T02:44:15.404Z,7.51
2022-12-23T02:46:47.453Z,7.52
2022-12-23T02:49:14.246Z,7.51
2022-12-23T02:51:52.904Z,7.50
2022-12-23T02:54:26.613Z,7.37
2022-12-23T02:56:56.611Z,7.45
2022-12-23T02:59:27.775Z,7.45
2022-12-23T03:01:55.520Z,7.45
2022-12-23T03:04:28.259Z,7.51
2022-12-23T03:07:04.498Z,7.52
2022-12-23T03:09:49.091Z,7.55
2022-12-23T03:13:18.835Z,7.56
2022-12-23T03:16:14.988Z,7.57
2022-12-23T03:19:20.159Z,7.58
2022-12-23T03:22:04.516Z,7.58
2022-12-23T03:24:41.145Z,7.60
2022-12-23T03:27:22.458Z,7.60
2022-12-23T03:30:08.394Z,7.62
2022-12-23T03:32:51.624Z,7.60
2022-12-23T03:35:27.728Z,7.67
2022-12-23T03:38:04.275Z,7.64
2022-12-23T03:40:39.012Z,7.65
2022-12-23T03:43:14.518Z,7.64
2022-12-23T03:45:47.164Z,7.65
2022-12-23T03:48:26.653Z,7.63
2022-12-23T03:51:08.742Z,7.64
2022-12-23T03:53:42.575Z,7.57
2022-12-23T03:56:31.226Z,7.58
2022-12-23T03:59:01.657Z,7.56
2022-12-23T04:02:22.288Z,7.59
2022-12-23T04:05:01.350Z,7.63
2022-12-23T04:07:36.309Z,7.62
2022-12-23T04:10:07.115Z,7.59
2022-12-23T04:12:33.892Z,7.63
2022-12-23T04:15:12.534Z,7.60
2022-12-23T04:17:54.757Z,7.62
2022-12-23T04:23:11.037Z,7.58
2022-12-23T04:25:40.639Z,7.67
2022-12-23T04:28:07.518Z,7.46
2022-12-23T04:30:35.070Z,7.57
2022-12-23T04:33:05.575Z,7.58
2022-12-23T04:35:32.172Z,7.57
2022-12-23T04:37:58.884Z,7.59
2022-12-23T04:40:31.872Z,7.58
2022-12-23T04:42:58.454Z,7.58
2022-12-23T04:45:25.280Z,7.58
2022-12-23T04:47:58.525Z,7.63
2022-12-23T04:50:39.306Z,7.64
2022-12-23T04:53:08.104Z,7.62
2022-12-23T04:55:34.772Z,7.68
2022-12-23T04:58:03.927Z,7.70
2022-12-23T05:00:34.104Z,7.72
2022-12-23T05:03:08.995Z,7.65
2022-12-23T05:05:41.419Z,7.71
2022-12-23T05:08:22.503Z,7.72
2022-12-23T05:10:52.244Z,7.70
2022-12-23T05:13:21.843Z,7.68
2022-12-23T05:15:56.072Z,7.60
2022-12-23T05:18:29.160Z,7.60
2022-12-23T05:20:59.071Z,7.64
2022-12-23T05:23:25.960Z,7.65
2022-12-23T05:25:58.973Z,7.63
2022-12-23T05:28:25.722Z,7.70
2022-12-23T05:31:05.693Z,7.70
2022-12-23T05:33:32.894Z,7.71
2022-12-23T05:35:59.820Z,7.73
2022-12-23T05:38:26.857Z,7.70
2022-12-23T05:40:53.904Z,7.71
2022-12-23T05:43:21.202Z,7.71
2022-12-23T05:45:48.082Z,7.70
2022-12-23T05:48:14.953Z,7.69
2022-12-23T05:50:41.703Z,7.69
2022-12-23T05:53:17.368Z,7.70
2022-12-23T05:55:44.073Z,7.70
2022-12-23T05:58:42.760Z,7.67
2022-12-23T06:01:09.337Z,7.67
2022-12-23T06:03:37.439Z,7.62
2022-12-23T06:06:05.777Z,7.66
2022-12-23T06:08:34.696Z,7.64
2022-12-23T06:11:05.413Z,7.63
2022-12-23T06:13:51.958Z,7.63
2022-12-23T06:16:18.670Z,7.64
2022-12-23T06:18:45.247Z,7.59
2022-12-23T06:21:11.878Z,7.62
2022-12-23T06:23:46.762Z,7.62
2022-12-23T06:26:13.471Z,7.60
2022-12-23T06:28:40.166Z,7.62
2022-12-23T06:31:06.782Z,7.60
2022-12-23T06:33:33.340Z,7.55
2022-12-23T06:35:59.875Z,7.55
2022-12-23T06:38:28.798Z,7.59
2022-12-23T06:40:55.485Z,7.55
2022-12-23T06:43:22.024Z,7.56
2022-12-23T06:45:49.621Z,7.59
2022-12-23T06:48:17.887Z,7.57
2022-12-23T06:50:44.837Z,7.54
2022-12-23T06:53:11.445Z,7.61
2022-12-23T06:55:41.734Z,7.59
2022-12-23T06:58:11.417Z,7.62
2022-12-23T07:00:38.032Z,7.60
2022-12-23T07:03:04.778Z,7.58
2022-12-23T07:05:36.934Z,7.67
2022-12-23T07:08:06.269Z,7.66
2022-12-23T07:10:34.100Z,7.67
2022-12-23T07:13:01.620Z,7.68
2022-12-23T07:15:28.453Z,7.68
2022-12-23T07:17:56.290Z,7.73
2022-12-23T07:20:22.881Z,7.78
2022-12-23T07:22:50.346Z,7.80
2022-12-23T07:25:17.051Z,7.84
2022-12-23T07:27:43.576Z,7.82
2022-12-23T07:30:10.666Z,7.86
2022-12-23T07:32:37.307Z,7.90
2022-12-23T07:35:04.462Z,7.93
2022-12-23T07:37:31.287Z,7.94
2022-12-23T07:39:57.981Z,7.95
2022-12-23T07:42:44.151Z,7.99
2022-12-23T07:45:13.268Z,8.01
2022-12-23T07:47:40.144Z,8.03
2022-12-23T07:50:07.466Z,8.05
2022-12-23T07:52:36.350Z,8.09
2022-12-23T07:55:02.979Z,8.11
2022-12-23T07:57:29.612Z,8.12
2022-12-23T07:59:58.360Z,8.24
2022-12-23T08:02:25.491Z,8.28
2022-12-23T08:04:52.867Z,8.32
2022-12-23T08:07:20.452Z,8.33
2022-12-23T08:09:49.677Z,8.34
2022-12-23T08:12:16.492Z,8.36
2022-12-23T08:14:45.621Z,8.38
2022-12-23T08:17:12.148Z,8.39
2022-12-23T08:19:38.877Z,8.36
2022-12-23T08:22:15.215Z,8.38
2022-12-23T08:24:45.786Z,8.38
2022-12-23T08:27:13.027Z,8.43
2022-12-23T08:29:40.501Z,8.46
2022-12-23T08:32:08.745Z,8.42
2022-12-23T08:34:35.881Z,8.43
2022-12-23T08:37:02.503Z,8.46
2022-12-23T08:39:31.577Z,8.42
2022-12-23T08:41:57.976Z,8.50
2022-12-23T08:44:27.885Z,8.54
2022-12-23T08:46:55.602Z,8.57
2022-12-23T08:49:22.876Z,8.62
2022-12-23T08:51:57.466Z,8.63
2022-12-23T08:54:28.003Z,8.63
2022-12-23T08:56:54.543Z,8.67
2022-12-23T08:59:22.520Z,8.73
2022-12-23T09:01:49.222Z,8.79
2022-12-23T09:04:19.067Z,8.85
2022-12-23T09:06:48.562Z,8.97
2022-12-23T09:11:50.501Z,8.97
2022-12-23T09:14:17.095Z,9.09
2022-12-23T09:16:43.772Z,9.16
2022-12-23T09:19:10.341Z,9.18
2022-12-23T09:21:37.315Z,9.29
2022-12-23T09:24:04.104Z,9.37
2022-12-23T09:26:31.720Z,9.44
2022-12-23T09:29:03.018Z,9.52
2022-12-23T09:31:37.284Z,9.65
2022-12-23T09:34:10.931Z,9.81
2022-12-23T09:36:37.524Z,9.89
2022-12-23T09:39:04.191Z,9.90
2022-12-23T09:41:37.993Z,9.99
2022-12-23T09:44:33.132Z,9.97
2022-12-23T09:47:11.398Z,10.00
2022-12-23T09:49:44.838Z,10.09
2022-12-23T09:52:16.619Z,10.22
2022-12-23T09:54:48.580Z,10.25
2022-12-23T09:57:23.172Z,10.05
2022-12-23T10:00:08.498Z,9.90
2022-12-23T10:02:44.484Z,9.65
2022-12-23T10:05:30.461Z,9.51
2022-12-23T10:08:44.536Z,9.47
2022-12-23T10:11:18.940Z,9.36
2022-12-23T10:13:50.527Z,9.31
2022-12-23T10:16:37.199Z,9.27
2022-12-23T10:19:18.930Z,9.32
2022-12-23T10:22:00.807Z,9.24
2022-12-23T10:24:39.235Z,9.30
2022-12-23T10:27:20.789Z,9.27
2022-12-23T10:29:52.760Z,9.27
2022-12-23T10:32:37.749Z,9.26
2022-12-23T10:35:21.340Z,9.22
2022-12-23T10:38:17.012Z,9.12
2022-12-23T10:41:10.362Z,9.09
2022-12-23T10:44:01.711Z,9.28
2022-12-23T10:46:37.245Z,9.36
2022-12-23T10:49:27.194Z,9.37
2022-12-23T10:51:59.636Z,9.41
2022-12-23T10:54:33.287Z,9.43
2022-12-23T10:57:00.499Z,9.34
2022-12-23T10:59:30.778Z,9.50
2022-12-23T11:02:14.685Z,9.61
2022-12-23T11:04:42.664Z,9.53
2022-12-23T11:10:07.529Z,9.68
2022-12-23T11:12:48.643Z,9.62
2022-12-23T11:15:41.019Z,9.67
2022-12-23T11:18:13.977Z,9.68
2022-12-23T11:20:44.045Z,9.72
2022-12-23T11:23:28.797Z,9.63
2022-12-23T11:26:09.040Z,9.61
2022-12-23T11:28:48.830Z,9.70
2022-12-23T11:31:17.580Z,9.78
2022-12-23T11:34:05.784Z,9.84
2022-12-23T11:36:34.428Z,9.72
2022-12-23T11:39:14.904Z,9.78
2022-12-23T11:41:50.317Z,9.78
2022-12-23T11:44:27.717Z,9.91
2022-12-23T11:46:54.883Z,10.05
2022-12-23T11:49:31.661Z,10.18
2022-12-23T11:52:05.283Z,10.29
2022-12-23T11:54:34.029Z,10.26
2022-12-23T11:57:04.082Z,10.31
2022-12-23T11:59:36.040Z,10.41
2022-12-23T12:02:13.482Z,10.44
2022-12-23T12:04:41.258Z,10.36
2022-12-23T12:07:13.268Z,10.36
2022-12-23T12:09:43.415Z,10.47
2022-12-23T12:12:17.468Z,10.39
2022-12-23T12:14:49.504Z,10.34
2022-12-23T12:17:24.589Z,10.35
2022-12-23T12:20:01.778Z,10.45
2022-12-23T12:22:59.143Z,10.54
2022-12-23T12:25:46.807Z,10.59
2022-12-23T12:28:33.029Z,10.54
2022-12-23T12:31:28.517Z,10.56
2022-12-23T12:34:20.662Z,10.56
2022-12-23T12:37:12.413Z,10.58
2022-12-23T12:40:01.025Z,10.64
2022-12-23T12:42:42.186Z,10.58
2022-12-23T12:45:30.060Z,10.61
2022-12-23T12:48:18.741Z,10.59
2022-12-23T12:50:59.449Z,10.59
2022-12-23T12:53:28.859Z,10.54
2022-12-23T12:56:00.493Z,10.50
2022-12-23T12:58:27.042Z,10.55
2022-12-23T13:01:08.090Z,10.45
2022-12-23T13:04:12.975Z,10.58
2022-12-23T13:06:54.516Z,10.59
2022-12-23T13:09:32.765Z,10.58
2022-12-23T13:12:15.057Z,10.58
2022-12-23T13:15:03.207Z,10.63
2022-12-23T13:17:39.379Z,10.65
2022-12-23T13:20:27.368Z,10.56
2022-12-23T13:23:14.862Z,10.56
2022-12-23T13:25:52.772Z,10.63
2022-12-23T13:28:42.997Z,10.67
2022-12-23T13:31:14.222Z,10.70
2022-12-23T13:34:03.865Z,10.74
2022-12-23T13:37:13.249Z,10.80
2022-12-23T13:39:49.933Z,10.80
2022-12-23T13:42:31.675Z,10.78
2022-12-23T13:44:59.334Z,10.80
2022-12-23T13:48:02.698Z,10.74
2022-12-23T13:51:06.161Z,10.66
2022-12-23T13:53:35.761Z,10.48
2022-12-23T13:56:23.962Z,10.38
2022-12-23T13:58:51.759Z,10.34
2022-12-23T14:01:18.286Z,10.24
2022-12-23T14:03:48.312Z,10.12
2022-12-23T14:06:24.027Z,10.09
2022-12-23T14:08:52.528Z,10.06
2022-12-23T14:11:25.045Z,10.03
2022-12-23T14:14:11.858Z,9.92
2022-12-23T14:17:09.997Z,9.87
2022-12-23T14:19:51.804Z,9.80
2022-12-23T14:22:50.989Z,9.73
2022-12-23T14:25:43.387Z,9.75
2022-12-23T14:28:47.437Z,9.68
2022-12-23T14:31:40.736Z,9.69
2022-12-23T14:34:25.245Z,9.69
2022-12-23T14:37:26.685Z,9.72
2022-12-23T14:39:56.468Z,9.70
2022-12-23T14:42:41.736Z,9.68
2022-12-23T14:45:45.862Z,9.66
2022-12-23T14:48:34.468Z,9.63
2022-12-23T14:51:20.808Z,9.60
2022-12-23T14:54:05.578Z,9.61
2022-12-23T14:56:42.847Z,9.63
2022-12-23T14:59:32.601Z,9.66
2022-12-23T15:02:06.167Z,9.61
2022-12-23T15:04:49.307Z,9.59
2022-12-23T15:07:26.052Z,9.51
2022-12-23T15:10:21.696Z,9.47
2022-12-23T15:13:25.062Z,9.41
2022-12-23T15:16:00.917Z,9.35
2022-12-23T15:18:48.159Z,9.25
2022-12-23T15:21:14.881Z,9.22
2022-12-23T15:23:54.379Z,9.07
2022-12-23T15:26:24.869Z,9.06
2022-12-23T15:28:52.398Z,9.00
2022-12-23T15:31:31.468Z,8.96
2022-12-23T15:34:03.761Z,8.92
2022-12-23T15:36:55.454Z,8.87
2022-12-23T15:39:45.885Z,8.80
2022-12-23T15:42:35.141Z,8.74
2022-12-23T15:45:33.489Z,8.68
2022-12-23T15:48:00.823Z,8.62
2022-12-23T15:50:28.785Z,8.57
2022-12-23T15:53:01.056Z,8.53
2022-12-23T15:55:35.097Z,8.49
2022-12-23T15:58:04.281Z,8.45
2022-12-23T16:00:40.651Z,8.40
2022-12-23T16:03:36.079Z,8.39
2022-12-23T16:06:34.454Z,8.29
2022-12-23T16:09:07.759Z,8.22
2022-12-23T16:12:04.347Z,8.16
2022-12-23T16:14:32.945Z,8.06
2022-12-23T16:17:08.810Z,8.05
2022-12-23T16:20:20.828Z,8.02
2022-12-23T16:22:51.469Z,8.01
2022-12-23T16:25:36.902Z,7.98
2022-12-23T16:28:17.392Z,7.97
2022-12-23T16:30:46.976Z,7.95
2022-12-23T16:33:38.705Z,7.92
2022-12-23T16:36:37.599Z,7.90
2022-12-23T16:39:07.172Z,7.89
2022-12-23T16:41:34.825Z,7.87
2022-12-23T16:44:01.735Z,7.85
2022-12-23T16:46:36.651Z,7.86
2022-12-23T16:49:06.478Z,7.92
2022-12-23T16:51:34.461Z,7.92
2022-12-23T16:54:01.860Z,7.95
2022-12-23T16:56:32.403Z,7.98
2022-12-23T16:58:59.044Z,8.03
2022-12-23T17:01:38.356Z,8.05
2022-12-23T17:04:06.562Z,8.09
2022-12-23T17:06:34.499Z,8.11
2022-12-23T17:09:03.274Z,8.12
2022-12-23T17:11:39.087Z,8.12
2022-12-23T17:14:15.800Z,8.15
2022-12-23T17:16:43.741Z,8.07
2022-12-23T17:19:11.446Z,7.98
2022-12-23T17:21:39.775Z,7.95
2022-12-23T17:24:07.616Z,7.93
2022-12-23T17:26:34.243Z,7.97
2022-12-23T17:29:03.540Z,7.93
2022-12-23T17:31:30.415Z,7.92
2022-12-23T17:33:57.029Z,7.93
2022-12-23T17:36:23.686Z,7.94
2022-12-23T17:38:50.304Z,7.92
2022-12-23T17:41:32.317Z,7.93
2022-12-23T17:43:59.694Z,7.89
2022-12-23T17:46:27.390Z,7.87
2022-12-23T17:48:54.148Z,7.89
2022-12-23T17:51:22.699Z,7.96
2022-12-23T17:53:56.858Z,7.97
2022-12-23T17:56:26.334Z,8.00
2022-12-23T17:58:53.203Z,7.98
2022-12-23T18:01:31.592Z,8.06
2022-12-23T18:04:00.433Z,8.08
2022-12-23T18:06:28.859Z,8.12
2022-12-23T18:08:57.461Z,8.15
2022-12-23T18:11:33.936Z,8.17
2022-12-23T18:14:04.235Z,8.22
2022-12-23T18:16:35.316Z,8.25
2022-12-23T18:19:05.846Z,8.26
2022-12-23T18:21:34.065Z,8.26
2022-12-23T18:24:08.889Z,8.32
2022-12-23T18:26:35.569Z,8.32
2022-12-23T18:29:02.157Z,8.32
2022-12-23T18:31:28.911Z,8.32
2022-12-23T18:33:55.573Z,8.34
2022-12-23T18:36:23.856Z,8.37
2022-12-23T18:38:52.192Z,8.37
2022-12-23T18:41:20.050Z,8.39
2022-12-23T18:43:47.079Z,8.39
2022-12-23T18:46:13.687Z,8.38
2022-12-23T18:48:43.082Z,8.34
2022-12-23T18:51:14.680Z,8.38
2022-12-23T18:53:41.701Z,8.37
2022-12-23T18:56:13.490Z,8.35
2022-12-23T18:58:40.076Z,8.29
2022-12-23T19:01:11.626Z,8.35
2022-12-23T19:03:38.389Z,8.38
2022-12-23T19:06:06.811Z,8.42
2022-12-23T19:08:35.181Z,8.45
2022-12-23T19:11:10.540Z,8.44
2022-12-23T19:13:40.349Z,8.38
2022-12-23T19:16:20.187Z,8.37
2022-12-23T19:19:07.933Z,8.29
2022-12-23T19:21:34.870Z,8.24
2022-12-23T19:24:02.499Z,8.25
2022-12-23T19:26:29.141Z,8.21
2022-12-23T19:28:59.049Z,8.20
2022-12-23T19:31:25.707Z,8.20
2022-12-23T19:33:52.497Z,8.25
2022-12-23T19:36:22.891Z,8.27
2022-12-23T19:38:50.382Z,8.31
2022-12-23T19:41:17.753Z,8.31
2022-12-23T19:43:46.146Z,8.33
2022-12-23T19:46:14.756Z,8.29
2022-12-23T19:48:41.914Z,8.33
2022-12-23T19:51:13.930Z,8.32
2022-12-23T19:53:41.691Z,8.30
2022-12-23T19:56:13.497Z,8.32
2022-12-23T19:58:42.291Z,8.27
2022-12-23T20:01:10.628Z,8.29
2022-12-23T20:03:38.117Z,8.32
2022-12-23T20:06:06.603Z,8.34
2022-12-23T20:08:34.526Z,8.37
2022-12-23T20:11:10.000Z,8.38
2022-12-23T20:13:37.196Z,8.29
2022-12-23T20:16:05.199Z,8.38
2022-12-23T20:18:32.262Z,8.40
2022-12-23T20:20:59.526Z,8.40
2022-12-23T20:23:26.352Z,8.41
2022-12-23T20:25:53.035Z,8.41
2022-12-23T20:28:19.782Z,8.32
2022-12-23T20:30:48.399Z,8.41
2022-12-23T20:33:16.016Z,8.42
2022-12-23T20:35:42.752Z,8.41
2022-12-23T20:38:09.279Z,8.43
2022-12-23T20:40:35.828Z,8.44
2022-12-23T20:43:03.010Z,8.44
2022-12-23T20:45:29.626Z,8.46
2022-12-23T20:47:56.185Z,8.46
2022-12-23T20:50:22.942Z,8.47
2022-12-23T20:52:49.472Z,8.46
2022-12-23T20:55:16.182Z,8.44
2022-12-23T20:57:44.777Z,8.41
2022-12-23T21:00:12.509Z,8.42
2022-12-23T21:02:40.672Z,8.40
2022-12-23T21:05:07.662Z,8.39
2022-12-23T21:07:34.277Z,8.36
2022-12-23T21:10:00.964Z,8.36
2022-12-23T21:12:27.552Z,8.36
2022-12-23T21:14:54.144Z,8.37
2022-12-23T21:17:21.227Z,8.40
2022-12-23T21:19:47.899Z,8.42
2022-12-23T21:22:14.501Z,8.44
2022-12-23T21:24:41.090Z,8.39
2022-12-23T21:27:07.653Z,8.39
2022-12-23T21:29:34.321Z,8.31
2022-12-23T21:32:01.002Z,8.30
2022-12-23T21:34:27.676Z,8.32
2022-12-23T21:36:54.356Z,8.32
2022-12-23T21:39:21.029Z,8.28
2022-12-23T21:41:49.836Z,8.31
2022-12-23T21:44:16.425Z,8.32
2022-12-23T21:46:43.519Z,8.35
2022-12-23T21:49:10.659Z,8.30
2022-12-23T21:51:40.658Z,8.30
2022-12-23T21:54:11.867Z,8.24
2022-12-23T21:56:40.095Z,8.29
2022-12-23T21:59:11.835Z,8.31
2022-12-23T22:01:38.525Z,8.31
2022-12-23T22:04:05.326Z,8.25
2022-12-23T22:06:39.128Z,8.32
2022-12-23T22:09:06.827Z,8.36
2022-12-23T22:11:37.160Z,8.35
2022-12-23T22:14:06.354Z,8.36
2022-12-23T22:16:34.370Z,8.36
2022-12-23T22:19:01.952Z,8.39
2022-12-23T22:21:30.379Z,8.37
2022-12-23T22:23:57.567Z,8.35
2022-12-23T22:26:31.393Z,8.38
2022-12-23T22:29:00.617Z,8.38
2022-12-23T22:31:50.049Z,8.38
2022-12-23T22:34:19.245Z,8.39
2022-12-23T22:36:45.833Z,8.42
2022-12-23T22:39:20.697Z,8.42
2022-12-23T22:41:48.859Z,8.38
2022-12-23T22:44:16.244Z,8.39
2022-12-23T22:46:43.115Z,8.43
2022-12-23T22:49:15.204Z,8.40
2022-12-23T22:51:42.692Z,8.39
2022-12-23T22:54:09.849Z,8.39
2022-12-23T22:56:36.835Z,8.39
2022-12-23T22:59:04.740Z,8.34
2022-12-23T23:01:33.921Z,8.36
2022-12-23T23:04:02.237Z,8.37
2022-12-23T23:06:31.904Z,8.36
2022-12-23T23:08:59.220Z,8.33
2022-12-23T23:11:27.189Z,8.32
2022-12-23T23:13:54.229Z,8.33
2022-12-23T23:16:21.344Z,8.35
2022-12-23T23:18:48.355Z,8.34
2022-12-23T23:21:15.217Z,8.33
2022-12-23T23:23:41.880Z,8.30
2022-12-23T23:26:10.174Z,8.26
2022-12-23T23:28:40.528Z,8.30
2022-12-23T23:33:55.025Z,8.33
2022-12-23T23:36:21.731Z,8.34
2022-12-23T23:38:48.354Z,8.38
2022-12-23T23:41:18.931Z,8.39
2022-12-23T23:43:49.376Z,8.41
2022-12-23T23:46:16.066Z,8.40
2022-12-23T23:48:42.705Z,8.44
2022-12-23T23:51:09.297Z,8.37
2022-12-23T23:53:35.959Z,8.37
2022-12-23T23:56:07.891Z,8.40
2022-12-23T23:58:36.604Z,8.38
